Finksburg, Maryland
Current Conditions -  °F | °C
As of 4:00 PM on Sunday 23 Nov 2014 (Local Time) from KDMW Reporting Station
Clear Clear  
Wind Chill: 52°   Ceiling: Unl
Heat Index: 52°   Visibility: 10mi
Dew Point: 25°   Wind: 7mph
Humidity: 35%   Direction: 140°SE
Pressure: 30.08"   Gusts: NA
Location:  39.49°N, 76.89°W
Report Text: KDMW 232100Z AUTO 14006KT 10SM CLR 11/M04 A3008 RMK AO2
Loading
Personal Weather Stations






























Interactive Weather Map New forecast layout! Learn more

10-Day Weather Forecast

Advertisements
Track Severe Weather on mobile